Terminal Aerodrome Forecast
Issued by NWS Sioux Falls, SD

Home | Current Version | Previous Version | Graphics & Text | Print | Product List | Glossary On
Versions: 1 2 3 4 5 6 7 8 9 10 11 12 13 14 15 16 17 18 19 20 21 22 23 24
000
FTUS43 KFSD 152320
TAFSUX
TAF
KSUX 152320Z 1600/1624 13008KT P6SM BKN035
     FM160900 11004KT P6SM BKN025
     FM161100 13004KT 4SM BR OVC020
     FM161500 15005KT P6SM BKN030=

USA.gov is the U.S. government's official web portal to all federal, state and local government web resources and services.